createdAt,value
2019-02-27T00:00:59.980Z,62.14
2019-02-27T00:03:29.211Z,62.81
2019-02-27T00:05:56.124Z,61.80
2019-02-27T00:08:22.233Z,62.45
2019-02-27T00:10:48.437Z,62.11
2019-02-27T00:13:14.774Z,61.44
2019-02-27T00:15:41.121Z,61.66
2019-02-27T00:18:07.503Z,62.03
2019-02-27T00:20:36.882Z,62.31
2019-02-27T00:23:02.145Z,62.79
2019-02-27T00:25:29.585Z,61.66
2019-02-27T00:27:55.706Z,61.74
2019-02-27T00:30:22.988Z,62.43
2019-02-27T00:32:51.310Z,62.73
2019-02-27T00:35:17.342Z,62.55
2019-02-27T00:37:43.594Z,62.30
2019-02-27T00:40:09.999Z,62.46
2019-02-27T00:42:36.231Z,63.06
2019-02-27T00:45:07.042Z,64.12
2019-02-27T00:47:33.134Z,63.66
2019-02-27T00:49:59.258Z,64.00
2019-02-27T00:52:25.342Z,62.22
2019-02-27T00:54:52.545Z,61.69
2019-02-27T00:57:20.891Z,62.44
2019-02-27T00:59:46.860Z,62.53
2019-02-27T01:02:12.908Z,62.34
2019-02-27T01:04:38.997Z,62.78
2019-02-27T01:07:05.176Z,63.11
2019-02-27T01:09:31.399Z,62.76
2019-02-27T01:11:57.574Z,63.16
2019-02-27T01:14:23.657Z,64.25
2019-02-27T01:16:50.162Z,64.45
2019-02-27T01:19:19.086Z,63.94
2019-02-27T01:21:45.285Z,64.76
2019-02-27T01:24:11.392Z,65.60
2019-02-27T01:26:37.472Z,65.06
2019-02-27T01:29:04.695Z,64.07
2019-02-27T01:31:30.907Z,64.83
2019-02-27T01:33:57.010Z,64.02
2019-02-27T01:36:24.621Z,63.63
2019-02-27T01:38:51.157Z,63.24
2019-02-27T01:41:24.388Z,63.51
2019-02-27T01:43:48.422Z,62.87
2019-02-27T01:46:14.528Z,63.60
2019-02-27T01:48:43.709Z,62.34
2019-02-27T01:51:08.763Z,63.90
2019-02-27T01:53:34.871Z,63.41
2019-02-27T01:56:01.096Z,63.79
2019-02-27T01:58:27.172Z,63.06
2019-02-27T02:00:56.060Z,63.25
2019-02-27T02:03:21.354Z,64.41
2019-02-27T02:05:47.956Z,64.43
2019-02-27T02:08:14.634Z,63.60
2019-02-27T02:10:40.964Z,63.25
2019-02-27T02:13:15.156Z,64.22
2019-02-27T02:16:01.542Z,63.46
2019-02-27T02:18:31.618Z,64.69
2019-02-27T02:21:19.664Z,62.90
2019-02-27T02:24:15.540Z,63.29
2019-02-27T02:27:09.270Z,64.09
2019-02-27T02:29:59.174Z,63.54
2019-02-27T02:32:52.037Z,64.37
2019-02-27T02:35:54.007Z,63.87
2019-02-27T02:38:40.660Z,63.35
2019-02-27T02:41:13.427Z,62.89
2019-02-27T02:43:46.136Z,61.43
2019-02-27T02:46:19.909Z,61.91
2019-02-27T02:48:55.675Z,62.03
2019-02-27T02:51:43.457Z,62.62
2019-02-27T02:54:19.326Z,61.52
2019-02-27T02:57:00.735Z,60.59
2019-02-27T02:59:46.764Z,60.43
2019-02-27T03:02:23.466Z,61.76
2019-02-27T03:05:06.871Z,61.68
2019-02-27T03:07:45.862Z,61.33
2019-02-27T03:10:25.065Z,60.83
2019-02-27T03:12:57.885Z,61.90
2019-02-27T03:15:42.270Z,61.79
2019-02-27T03:18:26.150Z,61.74
2019-02-27T03:21:01.934Z,62.95
2019-02-27T03:23:31.952Z,62.69
2019-02-27T03:26:04.618Z,62.15
2019-02-27T03:28:41.680Z,61.55
2019-02-27T03:31:33.488Z,61.89
2019-02-27T03:34:48.250Z,61.60
2019-02-27T03:37:19.715Z,61.71
2019-02-27T03:40:11.752Z,62.03
2019-02-27T03:43:10.487Z,61.66
2019-02-27T03:45:52.468Z,62.02
2019-02-27T03:48:28.457Z,63.70
2019-02-27T03:51:07.774Z,62.71
2019-02-27T03:53:52.784Z,63.61
2019-02-27T03:56:48.723Z,64.48
2019-02-27T03:59:27.646Z,64.30
2019-02-27T04:02:08.975Z,62.83
2019-02-27T04:05:05.316Z,62.83
2019-02-27T04:07:32.774Z,62.95
2019-02-27T04:09:59.044Z,62.66
2019-02-27T04:12:25.243Z,63.26
2019-02-27T04:14:51.438Z,64.47
2019-02-27T04:17:28.292Z,64.62
2019-02-27T04:19:55.610Z,64.45
2019-02-27T04:22:21.784Z,63.36
2019-02-27T04:24:48.127Z,63.14
2019-02-27T04:27:20.062Z,63.32
2019-02-27T04:29:42.320Z,63.78
2019-02-27T04:32:09.557Z,64.13
2019-02-27T04:34:36.393Z,63.41
2019-02-27T04:37:02.638Z,62.95
2019-02-27T04:39:28.702Z,63.43
2019-02-27T04:41:54.804Z,62.75
2019-02-27T04:44:20.902Z,63.04
2019-02-27T04:46:47.098Z,62.67
2019-02-27T04:49:13.236Z,61.97
2019-02-27T04:51:39.423Z,62.42
2019-02-27T04:54:07.278Z,62.65
2019-02-27T04:56:33.744Z,63.37
2019-02-27T04:58:59.857Z,62.26
2019-02-27T05:01:26.069Z,60.89
2019-02-27T05:03:52.444Z,62.44
2019-02-27T05:06:18.531Z,62.58
2019-02-27T05:08:44.715Z,64.18
2019-02-27T05:11:13.961Z,63.54
2019-02-27T05:13:39.017Z,61.94
2019-02-27T05:16:05.235Z,61.13
2019-02-27T05:18:31.331Z,61.23
2019-02-27T05:20:57.420Z,61.25
2019-02-27T05:23:23.608Z,61.81
2019-02-27T05:25:49.821Z,61.70
2019-02-27T05:28:16.143Z,61.14
2019-02-27T05:30:44.824Z,61.90
2019-02-27T05:33:10.415Z,62.14
2019-02-27T05:35:36.476Z,62.94
2019-02-27T05:38:02.703Z,62.78
2019-02-27T05:40:29.018Z,62.09
2019-02-27T05:42:55.154Z,62.74
2019-02-27T05:45:21.493Z,62.09
2019-02-27T05:47:47.583Z,62.57
2019-02-27T05:50:13.785Z,61.20
2019-02-27T05:52:40.070Z,61.78
2019-02-27T05:55:07.099Z,60.58
2019-02-27T05:57:33.347Z,60.98
2019-02-27T06:00:02.358Z,60.89
2019-02-27T06:02:27.554Z,61.65
2019-02-27T06:04:56.133Z,61.29
2019-02-27T06:07:21.923Z,62.67
2019-02-27T06:09:49.013Z,62.48
2019-02-27T06:12:15.288Z,61.55
2019-02-27T06:14:41.381Z,61.26
2019-02-27T06:17:10.211Z,61.12
2019-02-27T06:19:35.452Z,61.40
2019-02-27T06:22:01.759Z,63.59
2019-02-27T06:24:27.938Z,63.11
2019-02-27T06:26:54.138Z,62.86
2019-02-27T06:29:23.296Z,63.53
2019-02-27T06:31:48.252Z,64.59
2019-02-27T06:34:14.439Z,65.84
2019-02-27T06:36:42.864Z,66.73
2019-02-27T06:39:08.831Z,65.97
2019-02-27T06:41:34.904Z,65.60
2019-02-27T06:44:03.804Z,66.47
2019-02-27T06:46:29.923Z,66.23
2019-02-27T06:48:56.530Z,65.08
2019-02-27T06:51:22.770Z,65.28
2019-02-27T06:53:48.963Z,66.40
2019-02-27T06:56:15.096Z,65.77
2019-02-27T06:58:41.149Z,66.14
2019-02-27T07:01:09.666Z,67.01
2019-02-27T07:03:35.366Z,65.67
2019-02-27T07:06:03.343Z,64.45
2019-02-27T07:08:29.434Z,64.51
2019-02-27T07:10:58.948Z,63.14
2019-02-27T07:13:23.753Z,62.03
2019-02-27T07:15:49.943Z,59.36
2019-02-27T07:18:16.035Z,58.00
2019-02-27T07:20:42.228Z,58.11
2019-02-27T07:23:08.402Z,58.29
2019-02-27T07:25:34.728Z,58.03
2019-02-27T07:28:01.008Z,58.16
2019-02-27T07:30:28.495Z,59.40
2019-02-27T07:32:54.853Z,60.00
2019-02-27T07:35:25.399Z,60.86
2019-02-27T07:37:49.216Z,60.44
2019-02-27T07:40:16.765Z,59.26
2019-02-27T07:42:42.872Z,60.97
2019-02-27T07:45:16.871Z,61.40
2019-02-27T07:47:43.067Z,60.01
2019-02-27T07:50:11.961Z,59.29
2019-02-27T07:52:38.035Z,58.54
2019-02-27T07:55:21.080Z,59.78
2019-02-27T07:57:36.547Z,57.05
2019-02-27T08:00:14.752Z,54.55
2019-02-27T08:02:39.857Z,52.95
2019-02-27T08:05:07.850Z,51.41
2019-02-27T08:07:33.940Z,49.13
2019-02-27T08:10:03.595Z,48.90
2019-02-27T08:12:28.498Z,48.71
2019-02-27T08:14:54.609Z,46.44
2019-02-27T08:17:20.821Z,46.47
2019-02-27T08:19:47.020Z,46.05
2019-02-27T08:22:13.144Z,45.59
2019-02-27T08:24:39.353Z,45.32
2019-02-27T08:27:07.159Z,44.97
2019-02-27T08:29:33.646Z,44.92
2019-02-27T08:32:01.277Z,43.76
2019-02-27T08:34:27.961Z,43.75
2019-02-27T08:36:54.033Z,43.00
2019-02-27T08:39:20.185Z,42.42
2019-02-27T08:41:46.324Z,41.47
2019-02-27T08:44:13.299Z,40.97
2019-02-27T08:46:39.694Z,40.33
2019-02-27T08:49:05.869Z,40.46
2019-02-27T08:51:32.088Z,39.68
2019-02-27T08:53:59.361Z,40.16
2019-02-27T08:56:26.120Z,40.24
2019-02-27T08:58:52.299Z,40.11
2019-02-27T09:01:21.665Z,39.71
2019-02-27T09:03:47.798Z,39.54
2019-02-27T09:06:16.801Z,39.96
2019-02-27T09:08:44.027Z,39.63
2019-02-27T09:11:10.262Z,39.23
2019-02-27T09:13:36.797Z,38.26
2019-02-27T09:16:03.154Z,38.26
2019-02-27T09:18:29.398Z,38.40
2019-02-27T09:20:55.585Z,37.88
2019-02-27T09:23:21.763Z,37.38
2019-02-27T09:25:48.953Z,37.36
2019-02-27T09:28:16.001Z,36.48
2019-02-27T09:30:42.296Z,35.48
2019-02-27T09:33:08.526Z,35.53
2019-02-27T09:35:38.500Z,35.07
2019-02-27T09:38:02.800Z,35.41
2019-02-27T09:40:29.820Z,34.85
2019-02-27T09:42:56.546Z,34.36
2019-02-27T09:45:25.056Z,34.12
2019-02-27T09:47:51.356Z,34.56
2019-02-27T09:50:41.362Z,34.37
2019-02-27T09:53:07.808Z,33.93
2019-02-27T09:55:34.422Z,32.59
2019-02-27T09:58:00.938Z,31.87
2019-02-27T10:00:33.329Z,33.24
2019-02-27T10:03:00.244Z,32.43
2019-02-27T10:05:26.418Z,32.40
2019-02-27T10:07:52.646Z,32.78
2019-02-27T10:10:18.725Z,32.13
2019-02-27T10:12:44.837Z,31.65
2019-02-27T10:15:11.048Z,31.79
2019-02-27T10:17:37.136Z,31.27
2019-02-27T10:20:08.473Z,31.97
2019-02-27T10:22:34.694Z,31.17
2019-02-27T10:25:00.875Z,30.98
2019-02-27T10:27:28.709Z,30.63
2019-02-27T10:29:55.178Z,30.96
2019-02-27T10:32:21.353Z,30.16
2019-02-27T10:34:47.457Z,30.84
2019-02-27T10:37:17.152Z,30.17
2019-02-27T10:39:41.539Z,29.83
2019-02-27T10:42:07.765Z,29.34
2019-02-27T10:44:34.500Z,28.90
2019-02-27T10:47:00.848Z,28.87
2019-02-27T10:49:28.048Z,28.58
2019-02-27T10:51:54.266Z,29.16
2019-02-27T10:54:20.504Z,29.87
2019-02-27T10:56:46.607Z,28.99
2019-02-27T10:59:12.691Z,28.60
2019-02-27T11:01:38.769Z,28.91
2019-02-27T11:04:04.980Z,28.88
2019-02-27T11:06:34.078Z,29.03
2019-02-27T11:08:59.229Z,28.69
2019-02-27T11:11:25.521Z,28.43
2019-02-27T11:13:55.226Z,29.02
2019-02-27T11:16:21.277Z,29.10
2019-02-27T11:18:48.070Z,28.83
2019-02-27T11:21:14.414Z,28.85
2019-02-27T11:23:41.717Z,28.05
2019-02-27T11:26:08.031Z,28.89
2019-02-27T11:28:34.548Z,29.11
2019-02-27T11:31:01.092Z,28.19
2019-02-27T11:33:27.169Z,28.65
2019-02-27T11:35:53.273Z,27.65
2019-02-27T11:38:24.354Z,27.63
2019-02-27T11:40:47.603Z,27.44
2019-02-27T11:43:13.757Z,28.22
2019-02-27T11:45:39.969Z,27.97
2019-02-27T11:48:07.167Z,28.61
2019-02-27T11:50:33.587Z,29.10
2019-02-27T11:53:02.805Z,28.54
2019-02-27T11:55:27.976Z,27.90
2019-02-27T11:57:54.183Z,28.38
2019-02-27T12:00:23.417Z,29.04
2019-02-27T12:02:49.863Z,29.10
2019-02-27T12:05:16.268Z,28.80
2019-02-27T12:07:42.680Z,27.98
2019-02-27T12:10:12.479Z,28.12
2019-02-27T12:12:38.727Z,28.94
2019-02-27T12:15:09.098Z,27.79
2019-02-27T12:17:36.068Z,27.91
2019-02-27T12:20:03.981Z,28.00
2019-02-27T12:22:32.949Z,30.41
2019-02-27T12:25:00.450Z,27.49
2019-02-27T12:27:47.797Z,27.07
2019-02-27T12:29:54.930Z,27.70
2019-02-27T12:32:21.965Z,27.40
2019-02-27T12:34:48.723Z,27.55
2019-02-27T12:37:26.836Z,27.60
2019-02-27T12:39:43.579Z,27.11
2019-02-27T12:42:10.113Z,26.82
2019-02-27T12:44:36.359Z,26.56
2019-02-27T12:47:05.498Z,26.81
2019-02-27T12:49:30.895Z,26.80
2019-02-27T12:51:57.042Z,26.56
2019-02-27T12:54:23.163Z,25.27
2019-02-27T12:56:49.487Z,26.13
2019-02-27T12:59:15.809Z,26.16
2019-02-27T13:01:42.023Z,26.70
2019-02-27T13:04:08.380Z,26.02
2019-02-27T13:06:37.249Z,26.17
2019-02-27T13:09:04.756Z,25.54
2019-02-27T13:11:32.867Z,25.36
2019-02-27T13:13:59.662Z,26.19
2019-02-27T13:16:26.829Z,23.99
2019-02-27T13:18:53.058Z,24.41
2019-02-27T13:21:20.686Z,23.68
2019-02-27T13:23:47.438Z,23.36
2019-02-27T13:26:13.563Z,24.72
2019-02-27T13:28:39.808Z,24.92
2019-02-27T13:31:06.135Z,25.48
2019-02-27T13:33:32.949Z,25.73
2019-02-27T13:36:01.583Z,25.07
2019-02-27T13:38:28.796Z,24.86
2019-02-27T13:40:55.097Z,23.46
2019-02-27T13:43:21.409Z,23.99
2019-02-27T13:45:48.233Z,25.45
2019-02-27T13:48:14.669Z,24.97
2019-02-27T13:50:41.113Z,26.06
2019-02-27T13:53:07.453Z,24.47
2019-02-27T13:55:33.909Z,23.78
2019-02-27T13:58:03.663Z,24.09
2019-02-27T14:00:30.704Z,24.10
2019-02-27T14:02:57.049Z,25.74
2019-02-27T14:05:23.440Z,23.50
2019-02-27T14:07:49.654Z,26.16
2019-02-27T14:10:20.489Z,25.76
2019-02-27T14:12:45.791Z,26.94
2019-02-27T14:15:17.824Z,24.98
2019-02-27T14:17:44.124Z,26.91
2019-02-27T14:20:13.781Z,26.20
2019-02-27T14:22:41.155Z,25.66
2019-02-27T14:25:13.650Z,25.32
2019-02-27T14:27:40.168Z,25.34
2019-02-27T14:30:16.129Z,24.97
2019-02-27T14:32:44.988Z,24.63
2019-02-27T14:35:10.759Z,26.70
2019-02-27T14:37:37.144Z,26.28
2019-02-27T14:40:10.116Z,26.36
2019-02-27T14:42:36.441Z,28.63
2019-02-27T14:45:06.530Z,26.92
2019-02-27T14:47:32.697Z,27.65
2019-02-27T14:50:00.144Z,27.72
2019-02-27T14:52:27.879Z,26.42
2019-02-27T14:54:53.990Z,26.52
2019-02-27T14:57:20.324Z,28.21
2019-02-27T14:59:46.428Z,27.47
2019-02-27T15:02:12.779Z,27.52
2019-02-27T15:04:39.114Z,28.27
2019-02-27T15:07:05.425Z,28.43
2019-02-27T15:09:36.080Z,27.67
2019-02-27T15:11:59.767Z,29.10
2019-02-27T15:14:25.980Z,29.39
2019-02-27T15:16:52.302Z,30.32
2019-02-27T15:19:18.972Z,28.22
2019-02-27T15:21:46.530Z,29.47
2019-02-27T15:24:13.483Z,28.24
2019-02-27T15:26:45.248Z,28.26
2019-02-27T15:29:07.804Z,28.10
2019-02-27T15:31:34.053Z,29.38
2019-02-27T15:34:00.368Z,28.48
2019-02-27T15:36:29.502Z,30.26
2019-02-27T15:38:54.939Z,30.32
2019-02-27T15:41:21.287Z,29.75
2019-02-27T15:43:57.390Z,30.38
2019-02-27T15:46:15.848Z,29.05
2019-02-27T15:48:42.058Z,30.22
2019-02-27T15:51:08.353Z,29.28
2019-02-27T15:53:34.565Z,28.49
2019-02-27T15:56:00.927Z,29.19
2019-02-27T15:58:28.051Z,28.97
2019-02-27T16:00:55.042Z,28.10
2019-02-27T16:03:22.889Z,30.01
2019-02-27T16:05:49.561Z,30.31
2019-02-27T16:08:15.739Z,30.00
2019-02-27T16:10:43.821Z,31.32
2019-02-27T16:13:10.219Z,31.16
2019-02-27T16:15:36.447Z,29.08
2019-02-27T16:18:04.614Z,28.64
2019-02-27T16:20:31.030Z,29.36
2019-02-27T16:22:57.224Z,28.81
2019-02-27T16:25:25.944Z,28.07
2019-02-27T16:27:52.298Z,29.00
2019-02-27T16:30:21.546Z,30.10
2019-02-27T16:32:49.478Z,31.51
2019-02-27T16:35:17.354Z,30.63
2019-02-27T16:37:43.695Z,30.49
2019-02-27T16:40:18.652Z,32.37
2019-02-27T16:42:45.408Z,33.64
2019-02-27T16:45:20.435Z,33.22
2019-02-27T16:47:46.728Z,32.01
2019-02-27T16:50:15.427Z,33.32
2019-02-27T16:52:42.240Z,33.66
2019-02-27T16:55:13.319Z,35.19
2019-02-27T16:57:39.625Z,33.37
2019-02-27T17:00:09.543Z,36.18
2019-02-27T17:02:38.260Z,36.62
2019-02-27T17:05:10.498Z,34.87
2019-02-27T17:07:36.738Z,35.70
2019-02-27T17:10:10.980Z,36.01
2019-02-27T17:12:38.223Z,36.69
2019-02-27T17:15:11.172Z,36.36
2019-02-27T17:17:37.282Z,35.36
2019-02-27T17:20:12.698Z,36.03
2019-02-27T17:22:36.914Z,36.69
2019-02-27T17:25:09.799Z,38.59
2019-02-27T17:27:36.091Z,39.46
2019-02-27T17:30:17.624Z,39.59
2019-02-27T17:32:43.980Z,40.92
2019-02-27T17:35:10.303Z,42.06
2019-02-27T17:37:37.393Z,41.10
2019-02-27T17:40:09.024Z,40.58
2019-02-27T17:42:35.254Z,40.60
2019-02-27T17:45:04.154Z,40.15
2019-02-27T17:47:32.084Z,41.18
2019-02-27T17:49:58.325Z,42.02
2019-02-27T17:52:24.524Z,42.18
2019-02-27T17:54:50.642Z,42.40
2019-02-27T17:57:16.901Z,41.45
2019-02-27T17:59:43.100Z,41.78
2019-02-27T18:02:09.450Z,41.95
2019-02-27T18:04:35.825Z,43.39
2019-02-27T18:07:09.192Z,42.49
2019-02-27T18:09:34.524Z,43.57
2019-02-27T18:12:04.504Z,43.72
2019-02-27T18:14:30.632Z,43.12
2019-02-27T18:16:59.208Z,42.97
2019-02-27T18:19:24.867Z,43.14
2019-02-27T18:21:50.969Z,43.38
2019-02-27T18:24:20.102Z,43.33
2019-02-27T18:26:50.079Z,43.29
2019-02-27T18:29:14.681Z,43.45
2019-02-27T18:31:41.027Z,43.60
2019-02-27T18:34:07.228Z,44.23
2019-02-27T18:36:42.611Z,43.50
2019-02-27T18:39:06.959Z,43.71
2019-02-27T18:41:33.783Z,44.11
2019-02-27T18:44:01.229Z,44.05
2019-02-27T18:46:30.036Z,43.68
2019-02-27T18:48:56.362Z,44.22
2019-02-27T18:51:22.665Z,44.01
2019-02-27T18:53:49.006Z,44.59
2019-02-27T18:56:15.414Z,44.39
2019-02-27T18:58:41.809Z,45.22
2019-02-27T19:01:09.862Z,45.33
2019-02-27T19:03:36.877Z,45.86
2019-02-27T19:06:11.993Z,46.17
2019-02-27T19:08:41.350Z,46.76
2019-02-27T19:11:07.810Z,48.42
2019-02-27T19:13:35.142Z,48.81
2019-02-27T19:16:06.537Z,48.27
2019-02-27T19:18:41.134Z,48.27
2019-02-27T19:21:08.321Z,48.25
2019-02-27T19:23:34.731Z,49.12
2019-02-27T19:26:06.368Z,50.94
2019-02-27T19:28:33.818Z,51.43
2019-02-27T19:30:59.952Z,50.89
2019-02-27T19:33:32.619Z,51.28
2019-02-27T19:38:32.597Z,50.96
2019-02-27T19:41:01.326Z,50.80
2019-02-27T19:43:31.866Z,51.39
2019-02-27T19:48:32.064Z,51.14
2019-02-27T19:50:58.362Z,51.82
2019-02-27T19:53:24.738Z,52.13
2019-02-27T19:58:23.242Z,51.77
2019-02-27T20:00:52.293Z,52.90
2019-02-27T20:03:18.702Z,53.16
2019-02-27T20:05:45.480Z,51.50
2019-02-27T20:08:11.851Z,52.40
2019-02-27T20:10:41.360Z,52.23
2019-02-27T20:13:08.079Z,53.04
2019-02-27T20:15:34.510Z,52.23
2019-02-27T20:18:08.244Z,52.83
2019-02-27T20:20:40.029Z,52.96
2019-02-27T20:23:08.903Z,52.83
2019-02-27T20:25:47.385Z,52.58
2019-02-27T20:28:13.600Z,52.74
2019-02-27T20:30:40.422Z,54.59
2019-02-27T20:33:06.771Z,54.89
2019-02-27T20:35:39.105Z,55.13
2019-02-27T20:38:07.908Z,55.07
2019-02-27T20:40:35.236Z,56.31
2019-02-27T20:43:10.104Z,55.91
2019-02-27T20:45:36.340Z,55.53
2019-02-27T20:48:08.618Z,55.88
2019-02-27T20:50:45.704Z,56.11
2019-02-27T20:53:13.197Z,56.89
2019-02-27T20:55:39.986Z,56.31
2019-02-27T20:58:17.930Z,55.44
2019-02-27T21:00:44.345Z,55.92
2019-02-27T21:03:10.733Z,55.37
2019-02-27T21:05:40.947Z,56.52
2019-02-27T21:08:06.827Z,56.92
2019-02-27T21:10:33.693Z,56.84
2019-02-27T21:13:00.017Z,57.64
2019-02-27T21:15:33.466Z,57.21
2019-02-27T21:17:59.979Z,56.88
2019-02-27T21:20:26.337Z,57.04
2019-02-27T21:22:55.044Z,56.77
2019-02-27T21:25:21.157Z,56.32
2019-02-27T21:27:47.470Z,56.84
2019-02-27T21:30:18.892Z,57.39
2019-02-27T21:32:44.166Z,56.74
2019-02-27T21:35:10.477Z,56.76
2019-02-27T21:37:37.338Z,56.95
2019-02-27T21:40:09.212Z,57.04
2019-02-27T21:42:35.544Z,57.44
2019-02-27T21:45:03.650Z,57.18
2019-02-27T21:47:31.029Z,57.45
2019-02-27T21:49:57.121Z,58.32
2019-02-27T21:52:23.448Z,58.12
2019-02-27T21:54:49.806Z,58.84
2019-02-27T21:57:15.989Z,58.31
2019-02-27T21:59:42.388Z,58.15
2019-02-27T22:02:09.000Z,59.28
2019-02-27T22:04:35.308Z,59.66
2019-02-27T22:07:01.599Z,58.85
2019-02-27T22:09:27.783Z,59.28
2019-02-27T22:11:53.996Z,59.37
2019-02-27T22:14:20.397Z,60.27
2019-02-27T22:16:46.503Z,59.90
2019-02-27T22:19:12.824Z,59.27
2019-02-27T22:21:38.953Z,59.08
2019-02-27T22:24:05.279Z,59.05
2019-02-27T22:26:37.079Z,59.04
2019-02-27T22:29:00.014Z,58.93
2019-02-27T22:31:26.275Z,59.71
2019-02-27T22:33:53.137Z,59.24
2019-02-27T22:36:20.456Z,59.54
2019-02-27T22:38:46.654Z,59.97
2019-02-27T22:41:13.846Z,61.02
2019-02-27T22:43:40.103Z,61.56
2019-02-27T22:46:06.284Z,61.68
2019-02-27T22:48:32.519Z,62.68
2019-02-27T22:50:58.863Z,62.56
2019-02-27T22:53:26.238Z,62.06
2019-02-27T22:55:53.352Z,60.92
2019-02-27T22:58:19.852Z,61.18
2019-02-27T23:00:56.349Z,61.18
2019-02-27T23:03:36.917Z,61.06
2019-02-27T23:06:04.007Z,61.52
2019-02-27T23:08:30.361Z,62.12
2019-02-27T23:10:56.633Z,62.40
2019-02-27T23:13:22.895Z,63.00
2019-02-27T23:15:49.288Z,62.64
2019-02-27T23:18:15.487Z,62.62
2019-02-27T23:20:41.585Z,62.71
2019-02-27T23:23:07.922Z,62.41
2019-02-27T23:25:34.056Z,63.22
2019-02-27T23:28:01.026Z,62.94
2019-02-27T23:30:28.403Z,63.15
2019-02-27T23:32:54.734Z,62.68
2019-02-27T23:35:21.146Z,62.63
2019-02-27T23:37:47.266Z,61.48
2019-02-27T23:40:16.913Z,61.25
2019-02-27T23:42:41.633Z,60.99
2019-02-27T23:45:10.311Z,60.87
2019-02-27T23:47:37.729Z,60.72
2019-02-27T23:50:10.819Z,60.32
2019-02-27T23:52:35.796Z,60.29
2019-02-27T23:55:02.281Z,60.28
2019-02-27T23:57:28.682Z,60.17
2019-02-27T23:59:54.880Z,59.91
